Shepherd, MT (59079)

2:49 PM MDT on August 29, 2016 (GMT -0600)
MesoWest | | Change Station

Elev 3000 ft 45.92 °N, 108.25 °W | Updated 23 minutes ago

Partly Cloudy
Partly Cloudy
84 °F
Feels Like 82 °F
N
8
Wind Variable Wind from ESE
Gusts 0.0 mph

Today
High -- | Low -- °F
--% Chance of Precip.
Yesterday
High -- | Low -- °F
Precip. -- in
Pressure 30.14 in
Visibility 10.0 miles
Clouds Few 20000 ft
Heat Index 82 °F
Dew Point 48 °F
Humidity 28%
Rainfall in
Snow Depth Not available.
6:31 AM 7:56 PM
Waning Crescent, 7% visible
METAR KBIL 291953Z 06009KT 10SM FEW200 26/10 A3024 RMK AO2 SLP207 T02610100
Pressure 30.14 in
Visibility 10.0 miles
Clouds Few 20000 ft
Heat Index 82 °F
Dew Point 48 °F
Humidity 28%
Rainfall in
Snow Depth Not available.
6:31 AM 7:56 PM
Waning Crescent, 7% visible
METAR KBIL 291953Z 06009KT 10SM FEW200 26/10 A3024 RMK AO2 SLP207 T02610100

10-Day Weather Forecast

Almanac

Astronomy

Aug. 29, 2016 Rise Set
Actual Time
Civil Twilight
Nautical Twilight
Astronomical Twilight
Moon
Length of Visible Light
Length of Day
Tomorrow will be .
, % of the Moon is Illuminated

Today's Extremes

State Highs State Lows

Community

WunderPhotos

Upload Photos

1,935,676 photos uploaded!

WunderBlog® & News

Nearby

Air Quality

  Air Quality AQ Index Pollutant
Not available.

Snow Depth

Station Depth Elevation

Earthquake Activity

City Distance Mag. Time & Date
Minimum magnitude displayed is 2.5.

Coastal Water Temperatures

Place Temperature

Stations

Nearby Weather Stations

Station Location Temp. Windchill Dew Point Humidity Wind Precip. Elev Updated Type
                   

Watches & Warnings

There are currently no watches in effect.